sensor_id;sensor_type;location;lat;lon;timestamp;pressure;altitude;pressure_sealevel;temperature;humidity
41306;BME280;27051;50.376;19.152;2022-09-14T00:01:12;97357.43;;;17.75;56.69
41306;BME280;27051;50.376;19.152;2022-09-14T00:03:40;97356.07;;;17.75;56.78
41306;BME280;27051;50.376;19.152;2022-09-14T00:06:10;97359.98;;;17.74;56.80
41306;BME280;27051;50.376;19.152;2022-09-14T00:08:38;97354.71;;;17.75;56.96
41306;BME280;27051;50.376;19.152;2022-09-14T00:11:07;97355.09;;;17.77;56.88
41306;BME280;27051;50.376;19.152;2022-09-14T00:13:36;97357.04;;;17.77;56.87
41306;BME280;27051;50.376;19.152;2022-09-14T00:16:05;97354.30;;;17.81;56.85
41306;BME280;27051;50.376;19.152;2022-09-14T00:18:34;97353.91;;;17.82;56.94
41306;BME280;27051;50.376;19.152;2022-09-14T00:21:03;97350.00;;;17.83;56.89
41306;BME280;27051;50.376;19.152;2022-09-14T00:23:37;97353.46;;;17.87;56.89
41306;BME280;27051;50.376;19.152;2022-09-14T00:26:10;97350.52;;;17.90;56.88
41306;BME280;27051;50.376;19.152;2022-09-14T00:28:40;97342.20;;;17.89;56.84
41306;BME280;27051;50.376;19.152;2022-09-14T00:31:08;97339.59;;;17.93;56.90
41306;BME280;27051;50.376;19.152;2022-09-14T00:33:36;97341.70;;;17.97;56.87
41306;BME280;27051;50.376;19.152;2022-09-14T00:36:12;97336.62;;;17.99;56.85
41306;BME280;27051;50.376;19.152;2022-09-14T00:38:41;97336.20;;;18.01;56.83
41306;BME280;27051;50.376;19.152;2022-09-14T00:41:11;97330.91;;;18.06;56.87
41306;BME280;27051;50.376;19.152;2022-09-14T00:46:33;97333.41;;;18.08;56.85
41306;BME280;27051;50.376;19.152;2022-09-14T00:48:59;97330.30;;;18.10;56.82
41306;BME280;27051;50.376;19.152;2022-09-14T00:51:29;97331.66;;;18.10;56.76
41306;BME280;27051;50.376;19.152;2022-09-14T00:53:59;97329.10;;;18.11;56.79
41306;BME280;27051;50.376;19.152;2022-09-14T00:56:27;97330.09;;;18.09;56.80
41306;BME280;27051;50.376;19.152;2022-09-14T00:58:56;97324.86;;;18.10;56.80
41306;BME280;27051;50.376;19.152;2022-09-14T01:01:25;97326.22;;;18.10;56.80
41306;BME280;27051;50.376;19.152;2022-09-14T01:03:52;97324.09;;;18.09;56.78
41306;BME280;27051;50.376;19.152;2022-09-14T01:12:19;97313.24;;;18.06;56.88
41306;BME280;27051;50.376;19.152;2022-09-14T01:15:21;97311.17;;;18.02;56.76
41306;BME280;27051;50.376;19.152;2022-09-14T01:20:52;97317.09;;;17.93;56.82
41306;BME280;27051;50.376;19.152;2022-09-14T01:29:43;97318.98;;;17.96;56.94
41306;BME280;27051;50.376;19.152;2022-09-14T01:32:24;97312.61;;;17.94;56.85
41306;BME280;27051;50.376;19.152;2022-09-14T01:35:16;97309.16;;;17.90;56.87
41306;BME280;27051;50.376;19.152;2022-09-14T01:38:16;97313.88;;;17.86;56.94
41306;BME280;27051;50.376;19.152;2022-09-14T01:40:59;97309.06;;;17.82;56.97
41306;BME280;27051;50.376;19.152;2022-09-14T01:43:31;97303.25;;;17.80;57.03
41306;BME280;27051;50.376;19.152;2022-09-14T01:48:49;97296.88;;;17.75;57.07
41306;BME280;27051;50.376;19.152;2022-09-14T01:51:24;97299.42;;;17.74;57.01
41306;BME280;27051;50.376;19.152;2022-09-14T01:53:53;97300.41;;;17.72;57.11
41306;BME280;27051;50.376;19.152;2022-09-14T01:59:08;97287.94;;;17.59;57.11
41306;BME280;27051;50.376;19.152;2022-09-14T02:01:47;97297.08;;;17.57;57.28
41306;BME280;27051;50.376;19.152;2022-09-14T02:04:49;97296.14;;;17.55;57.28
41306;BME280;27051;50.376;19.152;2022-09-14T02:07:12;97290.92;;;17.53;57.29
41306;BME280;27051;50.376;19.152;2022-09-14T02:09:40;97289.20;;;17.51;57.24
41306;BME280;27051;50.376;19.152;2022-09-14T02:12:08;97291.56;;;17.45;57.31
41306;BME280;27051;50.376;19.152;2022-09-14T02:14:35;97286.94;;;17.42;57.37
41306;BME280;27051;50.376;19.152;2022-09-14T02:17:01;97285.20;;;17.40;57.35
41306;BME280;27051;50.376;19.152;2022-09-14T02:19:31;97283.50;;;17.38;57.41
41306;BME280;27051;50.376;19.152;2022-09-14T02:22:00;97284.12;;;17.34;57.38
41306;BME280;27051;50.376;19.152;2022-09-14T02:24:27;97277.38;;;17.30;57.46
41306;BME280;27051;50.376;19.152;2022-09-14T02:26:55;97280.31;;;17.28;57.44
41306;BME280;27051;50.376;19.152;2022-09-14T02:29:23;97277.22;;;17.26;57.51
41306;BME280;27051;50.376;19.152;2022-09-14T02:35:02;97270.67;;;17.20;57.52
41306;BME280;27051;50.376;19.152;2022-09-14T02:40:37;97266.31;;;17.10;57.61
41306;BME280;27051;50.376;19.152;2022-09-14T02:52:13;97246.82;;;17.00;57.80
41306;BME280;27051;50.376;19.152;2022-09-14T02:58:00;97236.77;;;16.97;57.93
41306;BME280;27051;50.376;19.152;2022-09-14T03:00:35;97237.75;;;16.95;58.00
41306;BME280;27051;50.376;19.152;2022-09-14T03:03:08;97243.56;;;16.97;58.04
41306;BME280;27051;50.376;19.152;2022-09-14T03:05:36;97240.27;;;16.94;58.06
41306;BME280;27051;50.376;19.152;2022-09-14T03:08:03;97243.78;;;16.95;58.10
41306;BME280;27051;50.376;19.152;2022-09-14T03:10:31;97237.20;;;16.92;58.11
41306;BME280;27051;50.376;19.152;2022-09-14T03:12:59;97239.12;;;16.91;58.12
41306;BME280;27051;50.376;19.152;2022-09-14T03:15:26;97236.45;;;16.88;58.11
41306;BME280;27051;50.376;19.152;2022-09-14T03:17:53;97236.28;;;16.87;58.17
41306;BME280;27051;50.376;19.152;2022-09-14T03:20:23;97239.22;;;16.84;58.18
41306;BME280;27051;50.376;19.152;2022-09-14T03:22:51;97238.08;;;16.82;58.25
41306;BME280;27051;50.376;19.152;2022-09-14T03:25:18;97241.17;;;16.80;58.24
41306;BME280;27051;50.376;19.152;2022-09-14T03:27:49;97236.74;;;16.75;58.34
41306;BME280;27051;50.376;19.152;2022-09-14T03:30:18;97239.25;;;16.74;58.38
41306;BME280;27051;50.376;19.152;2022-09-14T03:32:46;97245.47;;;16.74;58.54
41306;BME280;27051;50.376;19.152;2022-09-14T03:35:13;97249.55;;;16.70;58.43
41306;BME280;27051;50.376;19.152;2022-09-14T03:37:42;97256.34;;;16.70;58.53
41306;BME280;27051;50.376;19.152;2022-09-14T03:40:11;97254.43;;;16.67;58.57
41306;BME280;27051;50.376;19.152;2022-09-14T03:42:47;97251.55;;;16.66;58.59
41306;BME280;27051;50.376;19.152;2022-09-14T03:45:16;97243.20;;;16.65;58.68
41306;BME280;27051;50.376;19.152;2022-09-14T03:47:43;97245.53;;;16.63;58.67
41306;BME280;27051;50.376;19.152;2022-09-14T03:50:11;97244.98;;;16.60;58.68
41306;BME280;27051;50.376;19.152;2022-09-14T03:52:38;97244.61;;;16.58;58.84
41306;BME280;27051;50.376;19.152;2022-09-14T03:55:07;97238.03;;;16.56;58.82
41306;BME280;27051;50.376;19.152;2022-09-14T03:57:34;97241.16;;;16.54;58.99
41306;BME280;27051;50.376;19.152;2022-09-14T04:00:02;97245.62;;;16.53;59.10
41306;BME280;27051;50.376;19.152;2022-09-14T04:02:30;97257.83;;;16.53;59.02
41306;BME280;27051;50.376;19.152;2022-09-14T04:04:56;97247.16;;;16.54;59.09
41306;BME280;27051;50.376;19.152;2022-09-14T04:07:23;97256.22;;;16.59;59.12
41306;BME280;27051;50.376;19.152;2022-09-14T04:09:50;97243.03;;;16.61;59.10
41306;BME280;27051;50.376;19.152;2022-09-14T04:12:16;97244.00;;;16.62;59.07
41306;BME280;27051;50.376;19.152;2022-09-14T04:14:43;97242.82;;;16.63;59.13
41306;BME280;27051;50.376;19.152;2022-09-14T04:17:10;97240.70;;;16.63;59.08
41306;BME280;27051;50.376;19.152;2022-09-14T04:19:36;97243.62;;;16.64;59.21
41306;BME280;27051;50.376;19.152;2022-09-14T04:22:08;97237.60;;;16.64;59.17
41306;BME280;27051;50.376;19.152;2022-09-14T04:24:32;97230.61;;;16.63;59.32
41306;BME280;27051;50.376;19.152;2022-09-14T04:26:59;97230.41;;;16.66;59.53
41306;BME280;27051;50.376;19.152;2022-09-14T04:29:25;97227.91;;;16.63;59.32
41306;BME280;27051;50.376;19.152;2022-09-14T04:31:52;97226.37;;;16.62;59.56
41306;BME280;27051;50.376;19.152;2022-09-14T04:34:18;97224.64;;;16.60;59.37
41306;BME280;27051;50.376;19.152;2022-09-14T04:36:45;97227.34;;;16.60;59.49
41306;BME280;27051;50.376;19.152;2022-09-14T04:39:12;97234.72;;;16.60;59.45
41306;BME280;27051;50.376;19.152;2022-09-14T04:41:38;97227.91;;;16.63;59.51
41306;BME280;27051;50.376;19.152;2022-09-14T04:44:05;97223.82;;;16.67;59.46
41306;BME280;27051;50.376;19.152;2022-09-14T04:46:32;97227.30;;;16.67;59.50
41306;BME280;27051;50.376;19.152;2022-09-14T04:49:00;97228.81;;;16.72;59.59
41306;BME280;27051;50.376;19.152;2022-09-14T04:51:29;97235.38;;;16.75;59.58
41306;BME280;27051;50.376;19.152;2022-09-14T04:53:57;97236.15;;;16.75;59.50
41306;BME280;27051;50.376;19.152;2022-09-14T04:56:25;97239.03;;;16.76;59.51
41306;BME280;27051;50.376;19.152;2022-09-14T04:58:55;97241.95;;;16.77;59.60
41306;BME280;27051;50.376;19.152;2022-09-14T05:01:26;97247.20;;;16.80;59.63
41306;BME280;27051;50.376;19.152;2022-09-14T05:03:55;97245.03;;;16.83;59.71
41306;BME280;27051;50.376;19.152;2022-09-14T05:06:24;97241.13;;;16.87;59.67
41306;BME280;27051;50.376;19.152;2022-09-14T05:08:53;97235.44;;;16.93;59.69
41306;BME280;27051;50.376;19.152;2022-09-14T05:11:22;97235.98;;;16.97;59.67
41306;BME280;27051;50.376;19.152;2022-09-14T05:13:51;97241.41;;;16.97;59.74
41306;BME280;27051;50.376;19.152;2022-09-14T05:16:26;97242.97;;;16.98;59.74
41306;BME280;27051;50.376;19.152;2022-09-14T05:18:57;97244.11;;;17.00;59.69
41306;BME280;27051;50.376;19.152;2022-09-14T05:21:26;97246.02;;;17.03;59.76
41306;BME280;27051;50.376;19.152;2022-09-14T05:23:59;97249.69;;;17.05;59.74
41306;BME280;27051;50.376;19.152;2022-09-14T05:26:26;97241.50;;;17.08;59.86
41306;BME280;27051;50.376;19.152;2022-09-14T05:28:56;97242.80;;;17.16;59.78
41306;BME280;27051;50.376;19.152;2022-09-14T05:31:25;97234.02;;;17.20;59.75
41306;BME280;27051;50.376;19.152;2022-09-14T05:33:53;97243.08;;;17.25;59.71
41306;BME280;27051;50.376;19.152;2022-09-14T05:36:20;97240.13;;;17.31;59.69
41306;BME280;27051;50.376;19.152;2022-09-14T05:38:47;97240.39;;;17.40;59.76
41306;BME280;27051;50.376;19.152;2022-09-14T05:41:14;97237.80;;;17.48;59.68
41306;BME280;27051;50.376;19.152;2022-09-14T05:43:42;97233.43;;;17.58;59.68
41306;BME280;27051;50.376;19.152;2022-09-14T05:46:13;97234.14;;;17.62;59.67
41306;BME280;27051;50.376;19.152;2022-09-14T05:48:40;97236.02;;;17.69;59.52
41306;BME280;27051;50.376;19.152;2022-09-14T05:51:14;97242.13;;;17.76;59.56
41306;BME280;27051;50.376;19.152;2022-09-14T05:53:46;97241.05;;;17.86;59.65
41306;BME280;27051;50.376;19.152;2022-09-14T05:56:16;97239.38;;;17.95;59.52
41306;BME280;27051;50.376;19.152;2022-09-14T05:58:44;97233.09;;;18.02;59.46
41306;BME280;27051;50.376;19.152;2022-09-14T06:01:17;97242.55;;;18.06;59.45
41306;BME280;27051;50.376;19.152;2022-09-14T06:03:46;97236.79;;;18.15;59.45
41306;BME280;27051;50.376;19.152;2022-09-14T06:06:16;97235.37;;;18.19;59.22
41306;BME280;27051;50.376;19.152;2022-09-14T06:08:44;97233.74;;;18.25;59.18
41306;BME280;27051;50.376;19.152;2022-09-14T06:11:14;97235.58;;;18.32;59.15
41306;BME280;27051;50.376;19.152;2022-09-14T06:13:42;97239.69;;;18.43;59.30
41306;BME280;27051;50.376;19.152;2022-09-14T06:16:12;97244.39;;;18.55;59.25
41306;BME280;27051;50.376;19.152;2022-09-14T06:18:41;97247.06;;;18.70;59.29
41306;BME280;27051;50.376;19.152;2022-09-14T06:21:10;97249.04;;;18.81;58.95
41306;BME280;27051;50.376;19.152;2022-09-14T06:23:38;97252.66;;;18.86;58.90
41306;BME280;27051;50.376;19.152;2022-09-14T06:26:05;97251.86;;;18.98;59.01
41306;BME280;27051;50.376;19.152;2022-09-14T06:28:32;97254.28;;;19.16;59.06
41306;BME280;27051;50.376;19.152;2022-09-14T06:31:00;97257.83;;;19.36;58.83
41306;BME280;27051;50.376;19.152;2022-09-14T06:33:29;97258.52;;;19.40;58.34
41306;BME280;27051;50.376;19.152;2022-09-14T06:35:59;97264.36;;;19.50;58.45
41306;BME280;27051;50.376;19.152;2022-09-14T06:38:27;97257.69;;;19.63;58.38
41306;BME280;27051;50.376;19.152;2022-09-14T06:40:56;97261.70;;;19.79;58.36
41306;BME280;27051;50.376;19.152;2022-09-14T06:43:25;97259.45;;;19.93;58.10
41306;BME280;27051;50.376;19.152;2022-09-14T06:45:58;97261.10;;;20.07;57.94
41306;BME280;27051;50.376;19.152;2022-09-14T06:48:28;97269.84;;;20.19;57.90
41306;BME280;27051;50.376;19.152;2022-09-14T06:50:56;97275.31;;;20.27;57.85
41306;BME280;27051;50.376;19.152;2022-09-14T06:53:23;97273.19;;;20.34;57.63
41306;BME280;27051;50.376;19.152;2022-09-14T06:55:51;97278.84;;;20.44;57.72
41306;BME280;27051;50.376;19.152;2022-09-14T07:13:04;97270.36;;;20.83;57.09
41306;BME280;27051;50.376;19.152;2022-09-14T07:15:31;97270.28;;;20.94;56.79
41306;BME280;27051;50.376;19.152;2022-09-14T07:17:58;97272.31;;;20.98;56.55
41306;BME280;27051;50.376;19.152;2022-09-14T07:20:24;97270.42;;;21.03;56.57
41306;BME280;27051;50.376;19.152;2022-09-14T07:22:52;97271.98;;;21.05;56.54
41306;BME280;27051;50.376;19.152;2022-09-14T07:25:19;97278.45;;;21.11;56.77
41306;BME280;27051;50.376;19.152;2022-09-14T07:27:45;97276.91;;;21.18;56.52
41306;BME280;27051;50.376;19.152;2022-09-14T07:30:12;97272.19;;;21.27;56.48
41306;BME280;27051;50.376;19.152;2022-09-14T07:32:39;97275.45;;;21.30;56.17
41306;BME280;27051;50.376;19.152;2022-09-14T07:35:06;97267.51;;;21.27;56.28
41306;BME280;27051;50.376;19.152;2022-09-14T07:37:33;97268.42;;;21.29;56.15
41306;BME280;27051;50.376;19.152;2022-09-14T07:40:00;97269.53;;;21.31;56.27
41306;BME280;27051;50.376;19.152;2022-09-14T07:42:26;97265.63;;;21.32;56.26
41306;BME280;27051;50.376;19.152;2022-09-14T07:44:53;97269.46;;;21.43;56.13
41306;BME280;27051;50.376;19.152;2022-09-14T07:47:20;97258.60;;;21.48;55.93
41306;BME280;27051;50.376;19.152;2022-09-14T07:49:46;97260.20;;;21.53;55.79
41306;BME280;27051;50.376;19.152;2022-09-14T07:52:13;97260.86;;;21.57;55.65
41306;BME280;27051;50.376;19.152;2022-09-14T07:54:39;97261.64;;;21.58;55.55
41306;BME280;27051;50.376;19.152;2022-09-14T07:57:06;97257.28;;;21.60;55.63
41306;BME280;27051;50.376;19.152;2022-09-14T07:59:32;97257.59;;;21.62;55.56
41306;BME280;27051;50.376;19.152;2022-09-14T08:01:59;97267.31;;;21.72;55.42
41306;BME280;27051;50.376;19.152;2022-09-14T08:04:26;97264.47;;;21.75;55.43
41306;BME280;27051;50.376;19.152;2022-09-14T08:06:53;97267.00;;;21.82;55.30
41306;BME280;27051;50.376;19.152;2022-09-14T08:09:19;97261.27;;;21.85;55.09
41306;BME280;27051;50.376;19.152;2022-09-14T08:11:46;97255.86;;;21.89;55.18
41306;BME280;27051;50.376;19.152;2022-09-14T08:14:12;97250.46;;;21.94;55.13
41306;BME280;27051;50.376;19.152;2022-09-14T08:16:40;97251.29;;;21.99;55.07
41306;BME280;27051;50.376;19.152;2022-09-14T08:19:12;97257.25;;;22.02;55.08
41306;BME280;27051;50.376;19.152;2022-09-14T08:21:40;97257.45;;;22.16;54.86
41306;BME280;27051;50.376;19.152;2022-09-14T08:24:07;97253.14;;;22.23;54.78
41306;BME280;27051;50.376;19.152;2022-09-14T08:26:34;97254.20;;;22.34;54.65
41306;BME280;27051;50.376;19.152;2022-09-14T08:29:01;97258.19;;;22.38;54.50
41306;BME280;27051;50.376;19.152;2022-09-14T08:31:28;97257.03;;;22.43;54.42
41306;BME280;27051;50.376;19.152;2022-09-14T08:33:57;97262.50;;;22.56;54.34
41306;BME280;27051;50.376;19.152;2022-09-14T08:36:26;97260.77;;;22.62;53.58
41306;BME280;27051;50.376;19.152;2022-09-14T08:38:54;97266.88;;;22.66;53.47
41306;BME280;27051;50.376;19.152;2022-09-14T08:44:22;97264.51;;;22.86;53.58
41306;BME280;27051;50.376;19.152;2022-09-14T08:47:01;97263.39;;;22.96;53.59
41306;BME280;27051;50.376;19.152;2022-09-14T08:49:58;97265.19;;;23.07;53.26
41306;BME280;27051;50.376;19.152;2022-09-14T08:55:30;97262.71;;;23.00;52.88
41306;BME280;27051;50.376;19.152;2022-09-14T09:12:15;97253.52;;;23.29;52.33
41306;BME280;27051;50.376;19.152;2022-09-14T09:14:52;97259.94;;;23.52;52.17
41306;BME280;27051;50.376;19.152;2022-09-14T09:17:38;97256.38;;;23.82;52.02
41306;BME280;27051;50.376;19.152;2022-09-14T09:22:52;97252.53;;;24.42;51.06
41306;BME280;27051;50.376;19.152;2022-09-14T09:25:30;97248.21;;;24.58;50.49
41306;BME280;27051;50.376;19.152;2022-09-14T09:28:02;97251.92;;;24.74;49.86
41306;BME280;27051;50.376;19.152;2022-09-14T09:30:31;97242.47;;;24.84;49.95
41306;BME280;27051;50.376;19.152;2022-09-14T09:32:58;97249.21;;;24.97;50.20
41306;BME280;27051;50.376;19.152;2022-09-14T09:35:25;97241.13;;;25.07;49.90
41306;BME280;27051;50.376;19.152;2022-09-14T09:37:52;97243.16;;;25.25;49.68
41306;BME280;27051;50.376;19.152;2022-09-14T09:45:52;97232.87;;;25.81;49.06
41306;BME280;27051;50.376;19.152;2022-09-14T09:48:43;97234.23;;;25.94;48.67
41306;BME280;27051;50.376;19.152;2022-09-14T09:56:54;97240.61;;;26.10;48.23
41306;BME280;27051;50.376;19.152;2022-09-14T09:59:33;97236.45;;;26.24;47.30
41306;BME280;27051;50.376;19.152;2022-09-14T10:07:39;97235.61;;;25.90;46.98
41306;BME280;27051;50.376;19.152;2022-09-14T10:10:12;97236.70;;;25.88;47.18
41306;BME280;27051;50.376;19.152;2022-09-14T10:12:48;97235.60;;;25.94;47.04
41306;BME280;27051;50.376;19.152;2022-09-14T10:15:26;97229.64;;;26.01;46.91
41306;BME280;27051;50.376;19.152;2022-09-14T10:18:02;97225.73;;;26.26;46.22
41306;BME280;27051;50.376;19.152;2022-09-14T10:20:35;97223.36;;;26.38;45.87
41306;BME280;27051;50.376;19.152;2022-09-14T10:25:51;97213.13;;;26.91;44.95
41306;BME280;27051;50.376;19.152;2022-09-14T10:28:26;97211.81;;;27.30;44.38
41306;BME280;27051;50.376;19.152;2022-09-14T10:33:38;97214.33;;;28.88;43.80
41306;BME280;27051;50.376;19.152;2022-09-14T10:36:21;97205.81;;;29.69;41.59
41306;BME280;27051;50.376;19.152;2022-09-14T10:48:04;97206.16;;;28.78;41.19
41306;BME280;27051;50.376;19.152;2022-09-14T10:59:51;97201.63;;;27.36;41.10
41306;BME280;27051;50.376;19.152;2022-09-14T11:09:05;97205.95;;;25.89;41.88
41306;BME280;27051;50.376;19.152;2022-09-14T11:28:43;97193.80;;;25.26;43.72
41306;BME280;27051;50.376;19.152;2022-09-14T11:31:33;97192.85;;;25.06;43.72
41306;BME280;27051;50.376;19.152;2022-09-14T11:36:52;97189.01;;;24.66;44.37
41306;BME280;27051;50.376;19.152;2022-09-14T11:39:37;97200.27;;;24.45;44.50
41306;BME280;27051;50.376;19.152;2022-09-14T11:42:27;97193.08;;;24.08;45.12
41306;BME280;27051;50.376;19.152;2022-09-14T11:45:05;97190.93;;;23.76;45.67
41306;BME280;27051;50.376;19.152;2022-09-14T11:47:41;97196.11;;;23.52;45.83
41306;BME280;27051;50.376;19.152;2022-09-14T11:50:22;97187.63;;;23.37;46.42
41306;BME280;27051;50.376;19.152;2022-09-14T11:52:56;97188.77;;;23.27;46.62
41306;BME280;27051;50.376;19.152;2022-09-14T11:55:38;97187.64;;;23.19;46.80
41306;BME280;27051;50.376;19.152;2022-09-14T11:58:13;97184.28;;;22.98;47.36
41306;BME280;27051;50.376;19.152;2022-09-14T12:11:52;97199.06;;;22.40;50.13
41306;BME280;27051;50.376;19.152;2022-09-14T12:14:36;97204.60;;;22.19;49.95
41306;BME280;27051;50.376;19.152;2022-09-14T12:17:19;97210.38;;;21.96;50.68
41306;BME280;27051;50.376;19.152;2022-09-14T12:19:50;97198.18;;;21.71;50.79
41306;BME280;27051;50.376;19.152;2022-09-14T12:22:45;97216.12;;;21.51;52.09
41306;BME280;27051;50.376;19.152;2022-09-14T12:25:17;97220.18;;;21.38;51.63
41306;BME280;27051;50.376;19.152;2022-09-14T12:27:47;97220.71;;;21.25;52.51
41306;BME280;27051;50.376;19.152;2022-09-14T12:36:07;97210.27;;;20.99;52.36
41306;BME280;27051;50.376;19.152;2022-09-14T12:43:54;97205.91;;;20.93;53.57
41306;BME280;27051;50.376;19.152;2022-09-14T12:49:13;97188.01;;;20.76;54.17
41306;BME280;27051;50.376;19.152;2022-09-14T12:51:43;97193.47;;;20.76;54.81
41306;BME280;27051;50.376;19.152;2022-09-14T12:57:44;97191.53;;;20.60;55.72
41306;BME280;27051;50.376;19.152;2022-09-14T13:00:16;97186.47;;;20.42;55.95
41306;BME280;27051;50.376;19.152;2022-09-14T16:23:37;97065.13;;;19.65;62.80
41306;BME280;27051;50.376;19.152;2022-09-14T16:26:08;97065.72;;;19.64;62.73
41306;BME280;27051;50.376;19.152;2022-09-14T16:28:37;97060.27;;;19.64;62.96
41306;BME280;27051;50.376;19.152;2022-09-14T16:31:14;97061.34;;;19.59;63.00
41306;BME280;27051;50.376;19.152;2022-09-14T16:33:45;97052.56;;;19.51;64.74
41306;BME280;27051;50.376;19.152;2022-09-14T16:36:16;97048.47;;;19.43;63.92
41306;BME280;27051;50.376;19.152;2022-09-14T16:38:44;97040.20;;;19.38;63.46
41306;BME280;27051;50.376;19.152;2022-09-14T16:41:11;97038.16;;;19.34;64.08
41306;BME280;27051;50.376;19.152;2022-09-14T16:43:39;97036.54;;;19.28;63.72
41306;BME280;27051;50.376;19.152;2022-09-14T16:48:42;97047.14;;;19.23;64.44
41306;BME280;27051;50.376;19.152;2022-09-14T16:51:11;97046.22;;;19.21;64.20
41306;BME280;27051;50.376;19.152;2022-09-14T16:53:40;97043.04;;;19.15;64.46
41306;BME280;27051;50.376;19.152;2022-09-14T16:56:16;97038.60;;;19.13;64.59
41306;BME280;27051;50.376;19.152;2022-09-14T16:58:45;97040.72;;;19.13;64.76
41306;BME280;27051;50.376;19.152;2022-09-14T17:03:49;97041.22;;;19.08;64.85
41306;BME280;27051;50.376;19.152;2022-09-14T17:06:20;97042.42;;;19.07;64.96
41306;BME280;27051;50.376;19.152;2022-09-14T17:08:51;97045.80;;;19.03;64.99
41306;BME280;27051;50.376;19.152;2022-09-14T17:11:21;97047.35;;;19.04;65.05
41306;BME280;27051;50.376;19.152;2022-09-14T17:13:48;97045.14;;;19.07;65.25
41306;BME280;27051;50.376;19.152;2022-09-14T17:16:17;97042.67;;;19.04;65.08
41306;BME280;27051;50.376;19.152;2022-09-14T17:18:46;97038.99;;;19.03;65.46
41306;BME280;27051;50.376;19.152;2022-09-14T17:21:16;97040.59;;;19.00;65.50
41306;BME280;27051;50.376;19.152;2022-09-14T17:23:45;97046.89;;;18.97;65.28
41306;BME280;27051;50.376;19.152;2022-09-14T17:26:14;97043.16;;;18.99;65.74
41306;BME280;27051;50.376;19.152;2022-09-14T17:28:42;97030.20;;;18.95;65.53
41306;BME280;27051;50.376;19.152;2022-09-14T17:31:09;97036.44;;;18.96;65.53
41306;BME280;27051;50.376;19.152;2022-09-14T17:33:37;97043.25;;;18.96;65.74
41306;BME280;27051;50.376;19.152;2022-09-14T17:36:05;97039.92;;;18.96;65.88
41306;BME280;27051;50.376;19.152;2022-09-14T17:38:35;97050.46;;;18.94;65.75
41306;BME280;27051;50.376;19.152;2022-09-14T17:41:09;97058.11;;;18.91;65.76
41306;BME280;27051;50.376;19.152;2022-09-14T17:43:36;97044.74;;;18.89;65.93
41306;BME280;27051;50.376;19.152;2022-09-14T17:46:05;97044.23;;;18.85;66.09
41306;BME280;27051;50.376;19.152;2022-09-14T17:48:35;97032.28;;;18.79;66.03
41306;BME280;27051;50.376;19.152;2022-09-14T17:51:12;97028.66;;;18.74;66.24
41306;BME280;27051;50.376;19.152;2022-09-14T17:53:37;97021.33;;;18.71;66.89
41306;BME280;27051;50.376;19.152;2022-09-14T17:56:06;97031.18;;;18.65;66.33
41306;BME280;27051;50.376;19.152;2022-09-14T17:58:36;97029.83;;;18.65;66.59
41306;BME280;27051;50.376;19.152;2022-09-14T18:01:08;97020.46;;;18.66;66.46
41306;BME280;27051;50.376;19.152;2022-09-14T18:03:48;97022.17;;;18.68;66.48
41306;BME280;27051;50.376;19.152;2022-09-14T18:06:17;97025.73;;;18.65;66.84
41306;BME280;27051;50.376;19.152;2022-09-14T18:08:45;97029.76;;;18.57;67.16
41306;BME280;27051;50.376;19.152;2022-09-14T18:11:15;97034.88;;;18.55;66.84
41306;BME280;27051;50.376;19.152;2022-09-14T18:13:44;97034.28;;;18.55;66.71
41306;BME280;27051;50.376;19.152;2022-09-14T18:16:13;97034.33;;;18.52;67.07
41306;BME280;27051;50.376;19.152;2022-09-14T18:18:42;97038.48;;;18.48;66.90
41306;BME280;27051;50.376;19.152;2022-09-14T18:21:09;97031.77;;;18.44;66.80
41306;BME280;27051;50.376;19.152;2022-09-14T18:23:36;97042.64;;;18.44;67.37
41306;BME280;27051;50.376;19.152;2022-09-14T18:26:04;97044.41;;;18.43;67.04
41306;BME280;27051;50.376;19.152;2022-09-14T18:28:33;97048.37;;;18.38;67.17
41306;BME280;27051;50.376;19.152;2022-09-14T18:31:05;97049.25;;;18.32;67.37
41306;BME280;27051;50.376;19.152;2022-09-14T18:33:34;97044.05;;;18.29;67.31
41306;BME280;27051;50.376;19.152;2022-09-14T18:36:02;97043.05;;;18.31;67.44
41306;BME280;27051;50.376;19.152;2022-09-14T18:38:30;97045.97;;;18.32;67.40
41306;BME280;27051;50.376;19.152;2022-09-14T18:41:06;97032.72;;;18.34;67.76
41306;BME280;27051;50.376;19.152;2022-09-14T18:43:34;97025.20;;;18.30;67.50
41306;BME280;27051;50.376;19.152;2022-09-14T18:46:03;97019.66;;;18.26;68.00
41306;BME280;27051;50.376;19.152;2022-09-14T18:48:31;97016.21;;;18.21;68.11
41306;BME280;27051;50.376;19.152;2022-09-14T18:50:59;97011.49;;;18.14;67.86
41306;BME280;27051;50.376;19.152;2022-09-14T18:53:26;97004.01;;;18.10;67.65
41306;BME280;27051;50.376;19.152;2022-09-14T18:55:53;96994.89;;;18.08;67.57
41306;BME280;27051;50.376;19.152;2022-09-14T18:58:20;96991.58;;;18.09;67.65
41306;BME280;27051;50.376;19.152;2022-09-14T19:00:47;96994.06;;;18.11;67.70
41306;BME280;27051;50.376;19.152;2022-09-14T19:03:14;96995.77;;;18.13;67.52
41306;BME280;27051;50.376;19.152;2022-09-14T19:05:41;96998.49;;;18.13;67.54
41306;BME280;27051;50.376;19.152;2022-09-14T19:08:08;96997.73;;;18.13;67.54
41306;BME280;27051;50.376;19.152;2022-09-14T19:10:36;96994.89;;;18.20;67.59
41306;BME280;27051;50.376;19.152;2022-09-14T19:13:04;96998.48;;;18.25;67.61
41306;BME280;27051;50.376;19.152;2022-09-14T19:15:32;96999.02;;;18.28;67.62
41306;BME280;27051;50.376;19.152;2022-09-14T19:17:59;96993.81;;;18.26;67.57
41306;BME280;27051;50.376;19.152;2022-09-14T19:20:26;96994.45;;;18.33;67.70
41306;BME280;27051;50.376;19.152;2022-09-14T19:22:52;96993.20;;;18.38;67.67
41306;BME280;27051;50.376;19.152;2022-09-14T19:25:19;96990.08;;;18.39;67.59
41306;BME280;27051;50.376;19.152;2022-09-14T19:27:46;96976.48;;;18.39;67.50